METAR (acronimo di METeorological Air Report) è un messaggio meteo emesso nella maggior parte dei casi in ambito aeroportuale

CYYZ - Toronto-Pearson, Ontario, Canada
Ultimo Aggiornamento: Lunedì 03 Agosto 2020 19:00 CEST
Prevalentemente Nuvoloso
Prevalentemente Nuvoloso
 Wind from varies
Vento: variabile 4 km/h
Temperatura: 24°C
Punto di Rugiada: 17°C
Umidità: 65%
Barometro: 1015.2 hPa
Nuvole: Prevalentemente Nuvoloso
Visibilità: 24 km
Nuvole nel Dettaglio: Parzialmente Nuvoloso 1372 m
Prevalentemente Nuvoloso 1951 m
Prevalentemente Nuvoloso 3048 m
2020/08/03 17:00 CYYZ 031700Z VRB02KT 15SM SCT045 BKN064 BKN100 24/17 A2998 RMK CU3SC2AC1 SLP154 DENSITY ALT 1700FT
CYHZ - Halifax, Nova Scotia, Canada
Ultimo Aggiornamento: Lunedì 03 Agosto 2020 19:03 CEST
Pioggia Leggera, Acquazzoni, Bruma, Nuvoloso
Pioggia Leggera, Acquazzoni, Bruma, Nuvoloso
 Wind from Sud
Vento: Sud 22 km/h, Raffica: 37 km/h
Temperatura: 22°C
Punto di Rugiada: 22°C
Umidità: 100%
Barometro: 1015.2 hPa
Condizioni: Pioggia Leggera, Acquazzoni, Bruma
Nuvole: Nuvoloso
Visibilità: 2.4 km
Nuvole nel Dettaglio: Nuvoloso 152 m
2020/08/03 17:03 CYHZ 031703Z 19012G20KT 1 1/2SM -SHRA BR OVC005 22/22 A2998 RMK ST8 CVCTV CLD EMBD SLP153 DENSITY ALT 1300FT
CYOW - Ottawa, Ontario, Canada
Ultimo Aggiornamento: Lunedì 03 Agosto 2020 19:00 CEST
Prevalentemente Nuvoloso
Prevalentemente Nuvoloso
 Wind from Ovest-Nord-Ovest
Vento: Ovest-Nord-Ovest 20 km/h, Raffica: 30 km/h
Temperatura: 22°C
Punto di Rugiada: 16°C
Umidità: 69%
Barometro: 1015.2 hPa
Nuvole: Prevalentemente Nuvoloso
Visibilità: 24 km
Nuvole nel Dettaglio: Prevalentemente Nuvoloso 549 m
Prevalentemente Nuvoloso 7620 m
2020/08/03 17:00 CYOW 031700Z 29011G16KT 250V320 15SM BKN018 BKN250 22/16 A2998 RMK SC7CI1 CI TR SLP153 DENSITY ALT 1200FT
 
PANC - Anchorage, Alaska, United States
Ultimo Aggiornamento: Lunedì 03 Agosto 2020 18:53 CEST
Prevalentemente Nuvoloso
Prevalentemente Nuvoloso
 Wind from Est-Nord-Est
Vento: Est-Nord-Est 6 km/h
Temperatura: 14°C
Punto di Rugiada: 12°C
Umidità: 88%
Barometro: 1007.1 hPa
Nuvole: Prevalentemente Nuvoloso
Visibilità: 16 km
Nuvole nel Dettaglio: Qualche Nuvola 213 m
Prevalentemente Nuvoloso 2286 m
2020/08/03 16:53 PANC 031653Z 06003KT 10SM FEW007 BKN075 14/12 A2974 RMK AO2 SLP073 T01440122
KIAD - Washington-Dulles, Virginia, United States
Ultimo Aggiornamento: Lunedì 03 Agosto 2020 18:52 CEST
Prevalentemente Nuvoloso
Prevalentemente Nuvoloso
 Wind from varies
Vento: variabile 6 km/h
Temperatura: 29°C
Heat Index: 29°C
Punto di Rugiada: 18°C
Umidità: 51%
Barometro: 1017.9 hPa
Nuvole: Prevalentemente Nuvoloso
Visibilità: 16 km
Nuvole nel Dettaglio: Qualche Nuvola 1372 m
Prevalentemente Nuvoloso 2134 m
Prevalentemente Nuvoloso 4267 m
Prevalentemente Nuvoloso 7315 m
2020/08/03 16:52 KIAD 031652Z VRB03KT 10SM FEW045 BKN070 BKN140 BKN240 29/18 A3006 RMK AO2 SLP177 T02940178
KJFK - New York-JFK, New York, United States
Ultimo Aggiornamento: Lunedì 03 Agosto 2020 18:51 CEST
Qualche Nuvola
Qualche Nuvola
 Wind from Sud-Ovest
Vento: Sud-Ovest 28 km/h
Temperatura: 30°C
Heat Index: 31°C
Punto di Rugiada: 18°C
Umidità: 49%
Barometro: 1016.9 hPa
Nuvole: Qualche Nuvola
Visibilità: 16 km
Nuvole nel Dettaglio: Qualche Nuvola 1219 m
Qualche Nuvola 6096 m
2020/08/03 16:51 KJFK 031651Z 23015KT 10SM FEW040 FEW200 30/18 A3003 RMK AO2 SLP170 T03000183
 
KORD - Chicago, Illinois, United States
Ultimo Aggiornamento: Lunedì 03 Agosto 2020 18:51 CEST
Nuvoloso
Nuvoloso
 Wind from Nord
Vento: Nord 17 km/h
Temperatura: 21°C
Punto di Rugiada: 16°C
Umidità: 73%
Barometro: 1017.3 hPa
Nuvole: Nuvoloso
Visibilità: 16 km
Nuvole nel Dettaglio: Nuvoloso 488 m
2020/08/03 16:51 KORD 031651Z 35009KT 10SM OVC016 21/16 A3004 RMK AO2 SLP168 T02060156
KDEN - Denver, Colorado, United States
Ultimo Aggiornamento: Lunedì 03 Agosto 2020 18:53 CEST
Qualche Nuvola
Qualche Nuvola
 Wind from Ovest-Nord-Ovest
Vento: Ovest-Nord-Ovest 6 km/h
Temperatura: 24°C
Punto di Rugiada: 14°C
Umidità: 54%
Barometro: 1022.7 hPa
Nuvole: Qualche Nuvola
Visibilità: 16 km
Nuvole nel Dettaglio: Qualche Nuvola 2743 m
Qualche Nuvola 6706 m
2020/08/03 16:53 KDEN 031653Z 30003KT 10SM FEW090 FEW220 24/14 A3020 RMK AO2 SLP143 T02440139
KSLC - Salt Lake City, Utah, United States
Ultimo Aggiornamento: Lunedì 03 Agosto 2020 18:54 CEST
Prevalentemente Nuvoloso
Prevalentemente Nuvoloso
 Wind from Sud
Vento: Sud 28 km/h, Raffica: 39 km/h
Temperatura: 33°C
Punto di Rugiada: -2°C
Umidità: 10%
Barometro: 1016.6 hPa
Nuvole: Prevalentemente Nuvoloso
Visibilità: 16 km
Nuvole nel Dettaglio: Qualche Nuvola 3353 m
Prevalentemente Nuvoloso 5791 m
2020/08/03 16:54 KSLC 031654Z 19015G21KT 10SM FEW110 BKN190 33/M02 A3002 RMK AO2 SLP097 T03281022
 
KBOS - Boston, Massachusetts, United States
Ultimo Aggiornamento: Lunedì 03 Agosto 2020 18:54 CEST
Qualche Nuvola
Qualche Nuvola
 Wind from Ovest-Sud-Ovest
Vento: Ovest-Sud-Ovest 31 km/h, Raffica: 41 km/h
Temperatura: 33°C
Punto di Rugiada: 16°C
Umidità: 36%
Barometro: 1013.2 hPa
Nuvole: Qualche Nuvola
Visibilità: 16 km
Nuvole nel Dettaglio: Qualche Nuvola 1524 m
Qualche Nuvola 7620 m
2020/08/03 16:54 KBOS 031654Z 25017G22KT 10SM FEW050 FEW250 33/16 A2992 RMK AO2 PK WND 24026/1559 SLP132 T03280161
KLAX - Los Angeles, California, United States
Ultimo Aggiornamento: Lunedì 03 Agosto 2020 18:53 CEST
Banchi di Nebbia, Bruma, Parzialmente Nuvoloso
Banchi di Nebbia, Bruma, Parzialmente Nuvoloso
 Wind from Ovest
Vento: Ovest 13 km/h
Temperatura: 21°C
Punto di Rugiada: 17°C
Umidità: 78%
Barometro: 1014.6 hPa
Condizioni: Banchi di Nebbia, Bruma
Nuvole: Parzialmente Nuvoloso
Visibilità: 6 km
Nuvole nel Dettaglio: Qualche Nuvola 213 m
Parzialmente Nuvoloso 274 m
2020/08/03 16:53 KLAX 031653Z 26007KT 4SM BCFG BR FEW007 SCT009 21/17 A2996 RMK AO2 SLP141 VIS SW-W 1 1/2 SCT V BKN T02110167 $
KLAS - Las Vegas, Nevada, United States
Ultimo Aggiornamento: Lunedì 03 Agosto 2020 18:56 CEST
Sereno
Sereno
 Wind from varies
Vento: variabile 7 km/h
Temperatura: 34°C
Punto di Rugiada: -6°C
Umidità: 7%
Barometro: 1014.6 hPa
Nuvole: Sereno
Visibilità: 16 km
2020/08/03 16:56 KLAS 031656Z VRB04KT 10SM CLR 34/M06 A2996 RMK AO2 SLP113 FU ALQDS T03391061
 
KSFO - San Francisco, California, United States
Ultimo Aggiornamento: Lunedì 03 Agosto 2020 18:56 CEST
Qualche Nuvola
Qualche Nuvola
 Wind from Nord-Ovest
Vento: Nord-Ovest 19 km/h
Temperatura: 19°C
Punto di Rugiada: 12°C
Umidità: 64%
Barometro: 1016.9 hPa
Nuvole: Qualche Nuvola
Visibilità: 16 km
Nuvole nel Dettaglio: Qualche Nuvola 152 m
Qualche Nuvola 6096 m
2020/08/03 16:56 KSFO 031656Z 32010KT 10SM FEW005 FEW200 19/12 A3003 RMK AO2 SLP167 T01940117
KATL - Atlanta, Georgia, United States
Ultimo Aggiornamento: Lunedì 03 Agosto 2020 19:03 CEST
Temporale, Prevalentemente Nuvoloso
Temporale, Prevalentemente Nuvoloso
 Wind from calm
Vento: Calma
Temperatura: 30°C
Heat Index: 33°C
Punto di Rugiada: 21°C
Umidità: 59%
Barometro: 1014.9 hPa
Condizioni: Temporale
Nuvole: Prevalentemente Nuvoloso
Visibilità: 16 km
Nuvole nel Dettaglio: Parzialmente Nuvoloso 914 m
Prevalentemente Nuvoloso 2743 m
Prevalentemente Nuvoloso 4267 m
Prevalentemente Nuvoloso 6096 m
2020/08/03 17:03 KATL 031703Z 00000KT 10SM TS SCT030CB BKN090 BKN140 BKN200 30/21 A2997 RMK AO2 LTG DSNT SW AND W TSB02 OCNL LTGICCA NE TS NE MOV NE CB DSNT ALQDS TCU NE-SE-SW SHRA NE T03000211
KDFW - Dallas / Fort Worth, Texas, United States
Ultimo Aggiornamento: Lunedì 03 Agosto 2020 18:53 CEST
Prevalentemente Nuvoloso
Prevalentemente Nuvoloso
 Wind from Nord-Nord-Est
Vento: Nord-Nord-Est 15 km/h
Temperatura: 31°C
Heat Index: 33°C
Punto di Rugiada: 19°C
Umidità: 49%
Barometro: 1017.3 hPa
Nuvole: Prevalentemente Nuvoloso
Visibilità: 16 km
Nuvole nel Dettaglio: Qualche Nuvola 3048 m
Qualche Nuvola 5486 m
Prevalentemente Nuvoloso 7620 m
2020/08/03 16:53 KDFW 031653Z 03008KT 10SM FEW100 FEW180 BKN250 31/19 A3004 RMK AO2 SLP163 ACC DSNT N-E T03110189
 
KMCI - Kansas City, Missouri, United States
Ultimo Aggiornamento: Lunedì 03 Agosto 2020 18:53 CEST
Prevalentemente Nuvoloso
Prevalentemente Nuvoloso
 Wind from Nord
Vento: Nord 17 km/h
Temperatura: 22°C
Punto di Rugiada: 16°C
Umidità: 69%
Barometro: 1021 hPa
Nuvole: Prevalentemente Nuvoloso
Visibilità: 16 km
Nuvole nel Dettaglio: Parzialmente Nuvoloso 884 m
Prevalentemente Nuvoloso 1097 m
2020/08/03 16:53 KMCI 031653Z 01009KT 10SM SCT029 BKN036 22/16 A3015 RMK AO2 SLP202 T02220156
KIAH - Houston, Texas, United States
Ultimo Aggiornamento: Lunedì 03 Agosto 2020 18:53 CEST
Parzialmente Nuvoloso
Parzialmente Nuvoloso
 Wind from Ovest-Nord-Ovest
Vento: Ovest-Nord-Ovest 9 km/h
Temperatura: 33°C
Heat Index: 38°C
Punto di Rugiada: 23°C
Umidità: 56%
Barometro: 1016.6 hPa
Nuvole: Parzialmente Nuvoloso
Visibilità: 16 km
Nuvole nel Dettaglio: Parzialmente Nuvoloso 1158 m
Parzialmente Nuvoloso 7620 m
2020/08/03 16:53 KIAH 031653Z 30005KT 10SM SCT038 SCT250 33/23 A3002 RMK AO2 SLP165 T03280228
KMIA - Miami, Florida, United States
Ultimo Aggiornamento: Lunedì 03 Agosto 2020 18:53 CEST
Pioggia Leggera, Nuvoloso
Pioggia Leggera, Nuvoloso
 Wind from Ovest-Sud-Ovest
Vento: Ovest-Sud-Ovest 6 km/h
Temperatura: 28°C
Heat Index: 33°C
Punto di Rugiada: 26°C
Umidità: 89%
Barometro: 1013.9 hPa
Condizioni: Pioggia Leggera
Nuvole: Nuvoloso
Visibilità: 11 km
Nuvole nel Dettaglio: Prevalentemente Nuvoloso 640 m
Prevalentemente Nuvoloso 1524 m
Prevalentemente Nuvoloso 3048 m
Nuvoloso 7620 m
2020/08/03 16:53 KMIA 031653Z 25003KT 7SM -RA BKN021CB BKN050 BKN100 OVC250 28/26 A2994 RMK AO2 LTG DSNT NW RAB30 SLP139 CB OHD-NW-NE MOV NE CB DSNT SW MOV NE P0023 T02830261
 
KMSY - New Orleans, Louisiana, United States
Ultimo Aggiornamento: Lunedì 03 Agosto 2020 18:53 CEST
Parzialmente Nuvoloso
Parzialmente Nuvoloso
 Wind from Nord
Vento: Nord 15 km/h
Temperatura: 33°C
Heat Index: 37°C
Punto di Rugiada: 22°C
Umidità: 52%
Barometro: 1015.6 hPa
Nuvole: Parzialmente Nuvoloso
Visibilità: 16 km
Nuvole nel Dettaglio: Parzialmente Nuvoloso 823 m
2020/08/03 16:53 KMSY 031653Z 36008KT 10SM SCT027 33/22 A2999 RMK AO2 SLP159 T03280222
MMMX - Mexico City, Mexico
Ultimo Aggiornamento: Lunedì 03 Agosto 2020 18:44 CEST
Parzialmente Nuvoloso
Parzialmente Nuvoloso
 Wind from Est
Vento: Est 9 km/h
Temperatura: 20°C
Punto di Rugiada: 11°C
Umidità: 56%
Barometro: 1030.8 hPa
Nuvole: Parzialmente Nuvoloso
Visibilità: 10 km
Nuvole nel Dettaglio: Parzialmente Nuvoloso 610 m
2020/08/03 16:44 MMMX 031644Z 10005KT 6SM SCT020 20/11 A3044 NOSIG RMK 8/800 HZY
MUHA - Havana, Cuba
Ultimo Aggiornamento: Lunedì 03 Agosto 2020 18:55 CEST
Prevalentemente Nuvoloso
Prevalentemente Nuvoloso
 Wind from varies
Vento: variabile 6 km/h
Temperatura: 32°C
Heat Index: 40°C
Punto di Rugiada: 25°C
Umidità: 67%
Barometro: 1014 hPa
Nuvole: Prevalentemente Nuvoloso
Visibilità: 9 km
Nuvole nel Dettaglio: Prevalentemente Nuvoloso 914 m
2020/08/03 16:55 MUHA 031655Z VRB03KT 9000 BKN030 32/25 Q1014